Latest Coastal Weather Observations for Cooktown

IDQ60701

Issued at 4:02 pm EST Tuesday 26 May 2020 (issued every 10 minutes, with the page automatically refreshed every 10 minutes)

About coastal observations | Map of coastal stations | Coastal observations for QLD | Marine services | Other Formats
Station Details ID: 031209 Name: COOKTOWN AIRPORT Lat: -15.45 Lon: 145.19 Height: 4.8 m
Data from the previous 72 hours. | See also: Recent months at Cooktown
Date/Time
EST
Wind Sea
Height
m
Swell Vis
km
Cloud Weather Temp
°C
Press
hPa
Rain since
9am
mm
Dir  Spd
kts
Gust
kts
Height
m
Period
s
Dir
26/04:00pm ESE 12 17 - - - - 10 Clear - 23.2 1016.4 0.0
26/03:30pm ESE 12 17 - - - - 10 - - 23.5 1016.4 0.0
26/03:00pm SE 12 16 - - - - 10 - - 23.7 1016.5 0.0
26/02:30pm SE 12 17 - - - - 10 - - 24.0 1016.7 0.0
26/02:00pm ESE 13 17 - - - - 10 - - 23.9 1017.0 0.0
26/01:30pm ESE 12 18 - - - - 10 - - 24.2 1017.2 0.0
26/01:00pm ESE 12 18 - - - - 10 - - 23.9 1017.6 0.0
26/12:30pm SE 11 15 - - - - 10 - - 23.9 1018.1 0.0
26/12:00pm ESE 12 19 - - - - 10 - - 23.7 1018.3 0.0
26/11:30am ESE 13 19 - - - - 10 Partly cloudy - 23.9 1018.7 0.0
26/11:00am SE 11 15 - - - - 10 - - 23.6 1019.0 0.0
26/10:30am ESE 10 14 - - - - 10 Partly cloudy - 23.5 1019.3 0.0
26/10:00am SE 8 16 - - - - 10 Partly cloudy - 22.8 1019.5 0.0
26/09:30am S 3 5 - - - - 10 - - 20.6 1019.5 0.0
26/09:00am NW 2 4 - - - - 10 - - 19.2 1019.4 0.0
26/08:30am W 3 4 - - - - 10 - - 17.2 1019.1 0.0
26/08:00am W 3 5 - - - - 10 - - 15.8 1018.9 0.0
26/07:30am CALM 0 0 - - - - 10 - - 14.3 1018.7 0.0
26/07:00am CALM 0 0 - - - - 10 - - 12.8 1018.3 0.0
26/06:30am CALM 0 0 - - - - 9 - - 12.5 1018.2 0.0
26/06:00am CALM 0 0 - - - - 10 - - 12.7 1017.8 0.0
26/05:30am CALM 0 0 - - - - 10 - - 12.8 1017.5 0.0
26/05:00am CALM 0 1 - - - - 10 - - 13.0 1017.2 0.0
26/04:30am WNW 3 4 - - - - 10 - - 13.1 1017.2 0.0
26/04:00am CALM 0 3 - - - - 10 - - 13.6 1016.8 0.0
26/03:30am WNW 3 4 - - - - 10 - - 13.3 1016.9 0.0
26/03:00am CALM 0 3 - - - - 10 - - 14.0 1016.8 0.0
26/02:30am CALM 0 0 - - - - 10 - - 13.8 1017.0 0.0
26/02:00am CALM 0 0 - - - - 10 - - 14.1 1017.3 0.0
26/01:30am CALM 0 0 - - - - 10 - - 14.5 1017.4 0.0
26/01:00am CALM 0 3 - - - - 10 - - 14.4 1017.6 0.0
26/12:30am NW 3 4 - - - - 10 - - 14.6 1017.6 0.0
26/12:00am NW 3 4 - - - - 10 - - 15.0 1017.8 0.0
 
Date/Time
EST
Wind Sea
Height
m
Swell Vis
km
Cloud Weather Temp
°C
Press
hPa
Rain since
9am
mm
Dir  Spd
kts
Gust
kts
Height
m
Period
s
Dir
25/11:30pm NW 3 4 - - - - 10 - - 15.3 1017.9 0.0
25/11:00pm WNW 4 5 - - - - 10 - - 15.6 1018.0 0.0
25/10:30pm SSW 3 5 - - - - 10 - - 15.6 1018.0 0.0
25/10:00pm WNW 4 5 - - - - 10 - - 16.1 1018.1 0.0
25/09:30pm NW 4 5 - - - - 10 - - 16.1 1018.1 0.0
25/09:00pm CALM 0 0 - - - - 10 - - 16.9 1018.1 0.0
25/08:30pm S 3 4 - - - - 10 - - 17.2 1017.9 0.0
25/08:00pm S 4 4 - - - - 10 - - 17.9 1017.6 0.0
25/07:30pm S 3 4 - - - - 10 - - 18.3 1017.2 0.0
25/07:00pm SE 4 5 - - - - 10 - - 19.2 1016.9 0.0
25/06:30pm ESE 3 4 - - - - 10 - - 19.3 1016.5 0.0
25/06:00pm ESE 5 9 - - - - 10 - - 20.2 1016.2 0.0
25/05:30pm SE 7 10 - - - - 10 - - 21.2 1015.8 0.0
25/05:00pm ESE 9 13 - - - - 10 - - 22.0 1015.6 0.0
25/04:30pm E 11 14 - - - - 10 - - 22.6 1015.4 0.0
25/04:00pm E 12 17 - - - - 10 - - 22.9 1015.3 0.0
25/03:30pm E 12 16 - - - - 10 - - 23.4 1015.4 0.0
25/03:00pm ESE 9 13 - - - - 10 - - 23.4 1015.3 0.0
25/02:30pm ESE 9 13 - - - - 10 - - 23.6 1015.5 0.0
25/02:00pm ESE 12 17 - - - - 10 Partly cloudy - 23.6 1015.9 0.0
25/01:30pm ESE 10 17 - - - - 10 Cloudy - 23.8 1016.1 0.0
25/01:00pm ESE 11 15 - - - - 10 Cloudy - 23.5 1016.5 0.0
25/12:30pm ESE 11 16 - - - - 10 Cloudy - 23.6 1017.1 0.0
25/12:00pm SE 11 15 - - - - 10 Mostly cloudy - 23.0 1017.5 0.0
25/11:30am ESE 11 17 - - - - 10 Partly cloudy - 23.5 1018.0 0.0
25/11:00am SE 10 15 - - - - 10 Partly cloudy - 23.1 1018.5 0.0
25/10:30am SE 8 16 - - - - 10 Cloudy - 23.2 1018.8 0.0
25/10:00am SE 9 13 - - - - 10 Partly cloudy - 22.5 1019.0 0.0
25/09:30am SSE 5 9 - - - - 10 Partly cloudy - 21.5 1019.0 0.0
25/09:00am SSW 4 6 - - - - 10 - - 19.5 1018.8 0.2
25/08:30am CALM 0 0 - - - - 10 - - 17.8 1018.4 0.2
25/08:00am WSW 2 4 - - - - 10 Partly cloudy - 16.6 1018.0 0.2
25/07:30am CALM 0 0 - - - - 10 Cloudy - 15.1 1017.9 0.2
25/07:00am WSW 2 4 - - - - 10 Cloudy - 14.5 1017.5 0.2
25/06:30am W 1 4 - - - - 10 Cloudy - 13.5 1017.2 0.2
25/06:00am CALM 0 0 - - - - 10 - - 13.1 1016.7 0.2
25/05:30am CALM 0 0 - - - - 10 Partly cloudy - 13.3 1016.6 0.2
25/05:00am CALM 0 0 - - - - 10 - - 13.2 1016.4 0.2
25/04:30am CALM 0 0 - - - - 10 - - 13.6 1016.4 0.2
25/04:00am CALM 0 0 - - - - 10 - - 13.7 1016.3 0.2
25/03:30am CALM 0 0 - - - - 10 - - 14.1 1016.1 0.2
25/03:00am W 2 3 - - - - 10 Mostly clear - 14.6 1016.2 0.2
25/02:30am W 3 4 - - - - 10 - - 14.8 1016.2 0.2
25/02:00am SW 1 4 - - - - 10 Partly cloudy - 14.9 1016.2 0.2
25/01:30am W 3 4 - - - - 10 - - 15.1 1016.4 0.2
25/01:00am CALM 0 0 - - - - 10 Partly cloudy - 15.2 1016.4 0.2
25/12:30am NW 1 3 - - - - 10 Partly cloudy - 15.3 1016.6 0.2
25/12:00am WNW 1 4 - - - - 10 Cloudy - 15.4 1016.6 0.2
 
Date/Time
EST
Wind Sea
Height
m
Swell Vis
km
Cloud Weather Temp
°C
Press
hPa
Rain since
9am
mm
Dir  Spd
kts
Gust
kts
Height
m
Period
s
Dir
24/11:30pm CALM 0 3 - - - - 10 Cloudy - 15.8 1016.9 0.2
24/11:00pm NW 3 5 - - - - 10 Partly cloudy - 15.7 1017.0 0.2
24/10:30pm CALM 0 0 - - - - 10 Cloudy - 16.1 1017.1 0.2
24/10:00pm CALM 0 0 - - - - 10 Partly cloudy - 15.7 1016.9 0.2
24/09:30pm SSW 3 4 - - - - 10 - - 16.2 1016.9 0.2
24/09:00pm CALM 0 0 - - - - 10 Mostly clear - 16.7 1016.9 0.2
24/08:30pm SW 1 4 - - - - 10 - - 16.5 1016.5 0.2
24/08:00pm CALM 0 0 - - - - 10 - - 16.8 1016.3 0.2
24/07:30pm CALM 0 0 - - - - 10 - - 17.2 1015.9 0.2
24/07:00pm CALM 0 0 - - - - 10 - - 17.7 1015.6 0.2
24/06:30pm SE 3 5 - - - - 10 - - 18.9 1015.3 0.2
24/06:00pm SE 4 5 - - - - 10 Cloudy - 19.3 1014.9 0.2
24/05:30pm SE 5 8 - - - - 10 - - 20.0 1014.7 0.2
24/05:00pm ESE 7 10 - - - - 10 - - 20.4 1014.5 0.2
24/04:30pm E 8 10 - - - - 10 - - 21.4 1014.3 0.2
24/04:00pm ESE 8 11 - - - - 10 - - 21.8 1014.3 0.2
24/03:30pm E 9 13 - - - - 10 - - 21.9 1014.1 0.2
24/03:00pm ESE 9 13 - - - - 10 Mostly clear - 21.7 1014.1 0.2
24/02:30pm ESE 9 13 - - - - 10 - - 21.9 1014.3 0.2
24/02:00pm ESE 9 13 - - - - 10 - - 22.5 1014.3 0.2
24/01:30pm ESE 9 14 - - - - 10 - - 22.4 1014.5 0.2
24/01:00pm ESE 8 10 - - - - 10 Partly cloudy - 23.1 1014.7 0.2
24/12:30pm ESE 10 15 - - - - 10 - - 22.7 1015.1 0.2
24/12:00pm ESE 11 16 - - - - 10 Mostly clear - 22.5 1015.9 0.2
24/11:30am SE 9 12 - - - - 10 Partly cloudy - 22.7 1016.3 0.2
24/11:00am SE 10 15 - - - - 10 Partly cloudy - 22.3 1016.7 0.2
24/10:30am SE 8 12 - - - - 10 Partly cloudy - 21.6 1016.8 0.0
24/10:00am SSE 6 8 - - - - 10 Partly cloudy - 21.7 1016.9 0.0
24/09:30am SW 3 5 - - - - 10 Partly cloudy - 20.8 1017.0 0.0
24/09:00am WNW 3 5 - - - - 10 Cloudy - 20.0 1016.6 0.6
24/08:30am SW 4 6 - - - - 10 Partly cloudy - 19.6 1016.2 0.6
24/08:00am SW 4 6 - - - - 10 Partly cloudy - 19.1 1015.6 0.6
24/07:30am SW 4 5 - - - - 10 Partly cloudy - 19.0 1015.7 0.6
24/07:00am SW 3 4 - - - - 10 Partly cloudy - 19.0 1015.0 0.6
24/06:44am WNW 2 4 - - - - 10 Partly cloudy - 19.2 1015.0 0.6
24/06:30am W 2 5 - - - - 10 Partly cloudy - 19.2 1015.1 0.6
24/06:27am W 2 5 - - - - 10 Partly cloudy - 19.2 1014.9 0.6
24/06:04am SSW 2 5 - - - - 10 Partly cloudy - 19.4 1014.5 0.6
24/06:00am SSW 2 4 - - - - 10 Cloudy - 19.3 1014.3 0.6
24/05:30am SE 3 4 - - - - 10 Partly cloudy - 19.3 1013.8 0.6
24/05:00am S 3 5 - - - - 10 Partly cloudy - 19.4 1013.8 0.6
24/04:48am SSW 1 4 - - - - 10 Partly cloudy - 19.4 1013.6 0.6
24/04:30am CALM 0 0 - - - - 10 Partly cloudy - 19.4 1013.4 0.6
24/04:00am CALM 0 4 - - - - 10 Cloudy - 19.4 1013.1 0.6
24/03:30am CALM 0 0 - - - - 10 Cloudy - 19.5 1013.2 0.6
24/03:00am CALM 0 0 - - - - 10 Cloudy - 19.7 1013.3 0.6
24/02:30am CALM 0 0 - - - - 10 Partly cloudy - 19.5 1013.4 0.6
24/02:00am CALM 0 0 - - - - 10 Cloudy - 19.8 1013.5 0.6
24/01:30am CALM 0 0 - - - - 10 Cloudy - 19.9 1013.7 0.6
24/01:00am SW 1 4 - - - - 10 Cloudy - 20.0 1014.0 0.6
24/12:30am SSW 3 5 - - - - 10 Cloudy - 20.1 1014.2 0.6
24/12:00am SSE 1 4 - - - - 10 Mostly cloudy - 20.3 1014.0 0.6
 
Date/Time
EST
Wind Sea
Height
m
Swell Vis
km
Cloud Weather Temp
°C
Press
hPa
Rain since
9am
mm
Dir  Spd
kts
Gust
kts
Height
m
Period
s
Dir
23/11:30pm CALM 0 0 - - - - 10 Cloudy - 20.5 1014.2 0.6
23/11:00pm SW 3 4 - - - - 10 Cloudy - 20.6 1014.5 0.6
23/10:30pm SW 3 4 - - - - 10 Cloudy - 20.7 1014.5 0.6
23/10:00pm SW 3 4 - - - - 10 Cloudy - 20.8 1014.2 0.6
23/09:30pm SSW 3 4 - - - - 10 Cloudy - 20.9 1014.1 0.6
23/09:00pm SSE 3 4 - - - - 10 Cloudy - 21.1 1014.1 0.6
23/08:30pm SE 3 4 - - - - 10 Cloudy - 21.1 1013.7 0.6
23/08:00pm SE 4 5 - - - - 10 Cloudy - 21.0 1013.6 0.6
23/07:30pm SE 3 5 - - - - 10 Cloudy - 20.8 1013.4 0.6
23/07:00pm ESE 4 5 - - - - 10 Cloudy - 20.8 1013.0 0.6
23/06:30pm ESE 3 4 - - - - 10 Cloudy - 21.0 1013.0 0.6
23/06:00pm SE 1 3 - - - - 10 Cloudy - 21.1 1012.7 0.6
23/05:30pm SE 2 4 - - - - 10 Cloudy - 21.4 1012.6 0.6
23/05:00pm SE 3 4 - - - - 10 Cloudy - 21.7 1012.6 0.6
23/04:30pm CALM 0 0 - - - - 10 Cloudy - 22.1 1012.6 0.6

Other formats

Comma delimited format used in spreadsheet applications
http://www.bom.gov.au/fwo/IDQ60701/IDQ60701.95283.axf

JavaScript Object Notation format (JSON) in row-major order
http://www.bom.gov.au/fwo/IDQ60701/IDQ60701.95283.json

Data quality

Most of these data are generated automatically and are frequently updated. Quality checks on data are not normally performed. It is possible for incorrect values to appear. Refer to information at About Latest Weather Observations and please check the disclaimer before using these data.